createdAt,value
2023-01-28T00:02:07.974Z,103025.06
2023-01-28T00:07:02.032Z,103037.13
2023-01-28T00:11:54.504Z,103037.13
2023-01-28T00:16:45.111Z,103037.13
2023-01-28T00:21:42.879Z,103056.25
2023-01-28T00:26:38.434Z,103049.19
2023-01-28T00:31:35.904Z,103040.00
2023-01-28T00:36:35.217Z,103047.56
2023-01-28T00:41:26.654Z,103042.09
2023-01-28T00:46:26.166Z,103047.41
2023-01-28T00:51:18.539Z,103048.44
2023-01-28T00:56:14.736Z,103049.75
2023-01-28T01:01:16.178Z,103054.09
2023-01-28T01:06:13.891Z,103052.47
2023-01-28T01:11:07.147Z,103054.41
2023-01-28T01:16:11.040Z,103049.41
2023-01-28T01:21:05.016Z,103040.88
2023-01-28T01:26:01.241Z,103039.88
2023-01-28T01:30:56.235Z,103034.72
2023-01-28T01:35:49.370Z,103043.94
2023-01-28T01:40:43.146Z,103036.78
2023-01-28T01:45:45.607Z,103039.28
2023-01-28T01:50:40.962Z,103047.75
2023-01-28T01:55:35.722Z,103054.06
2023-01-28T02:00:28.478Z,103052.63
2023-01-28T02:05:26.194Z,103063.97
2023-01-28T02:10:20.830Z,103060.66
2023-01-28T02:15:19.846Z,103043.28
2023-01-28T02:20:14.726Z,103042.91
2023-01-28T02:25:25.412Z,103044.16
2023-01-28T02:30:24.690Z,103045.84
2023-01-28T02:35:26.769Z,103050.25
2023-01-28T02:40:22.462Z,103050.66
2023-01-28T02:45:23.776Z,103060.41
2023-01-28T02:50:17.717Z,103066.28
2023-01-28T02:55:14.133Z,103065.69
2023-01-28T03:00:13.090Z,103061.84
2023-01-28T03:05:13.778Z,103059.13
2023-01-28T03:10:07.280Z,103063.31
2023-01-28T03:15:13.306Z,103053.34
2023-01-28T03:20:21.574Z,103067.56
2023-01-28T03:25:24.550Z,103064.53
2023-01-28T03:30:32.121Z,103068.44
2023-01-28T03:35:45.305Z,103071.13
2023-01-28T03:40:42.474Z,103063.84
2023-01-28T03:45:33.452Z,103079.69
2023-01-28T03:50:41.555Z,103076.44
2023-01-28T03:55:32.147Z,103064.53
2023-01-28T04:00:23.417Z,103071.03
2023-01-28T04:05:17.733Z,103068.84
2023-01-28T04:10:19.209Z,103076.94
2023-01-28T04:15:27.945Z,103084.56
2023-01-28T04:20:20.584Z,103090.38
2023-01-28T04:25:19.926Z,103087.53
2023-01-28T04:30:15.007Z,103093.63
2023-01-28T04:35:12.010Z,103096.13
2023-01-28T04:40:38.639Z,103101.09
2023-01-28T04:45:37.983Z,103110.41
2023-01-28T04:50:49.277Z,103091.25
2023-01-28T04:56:06.805Z,103100.00
2023-01-28T05:01:07.629Z,103085.31
2023-01-28T05:06:15.471Z,103078.34
2023-01-28T05:11:12.161Z,103078.50
2023-01-28T05:16:05.184Z,103078.94
2023-01-28T05:21:01.516Z,103077.31
2023-01-28T05:25:54.135Z,103085.22
2023-01-28T05:30:50.204Z,103090.53
2023-01-28T05:35:45.672Z,103093.09
2023-01-28T05:40:37.879Z,103092.34
2023-01-28T05:45:35.267Z,103090.78
2023-01-28T05:51:02.036Z,103084.09
2023-01-28T05:56:04.043Z,103083.69
2023-01-28T06:01:04.241Z,103078.88
2023-01-28T06:06:09.120Z,103078.06
2023-01-28T06:11:04.589Z,103081.09
2023-01-28T06:16:01.181Z,103086.66
2023-01-28T06:21:24.662Z,103087.56
2023-01-28T06:26:15.333Z,103097.69
2023-01-28T06:31:08.894Z,103088.22
2023-01-28T06:35:58.900Z,103087.63
2023-01-28T06:41:03.976Z,103091.25
2023-01-28T06:45:54.458Z,103105.00
2023-01-28T06:50:44.689Z,103107.78
2023-01-28T06:55:44.696Z,103108.59
2023-01-28T07:00:40.063Z,103111.72
2023-01-28T07:05:30.247Z,103112.19
2023-01-28T07:10:26.905Z,103121.59
2023-01-28T07:15:18.149Z,103120.78
2023-01-28T07:20:12.543Z,103120.78
2023-01-28T07:25:13.114Z,103115.47
2023-01-28T07:30:05.141Z,103125.84
2023-01-28T07:34:57.525Z,103139.16
2023-01-28T07:39:55.447Z,103134.63
2023-01-28T07:44:53.684Z,103142.00
2023-01-28T07:49:46.600Z,103140.75
2023-01-28T07:54:44.509Z,103144.41
2023-01-28T07:59:38.951Z,103147.44
2023-01-28T08:04:28.972Z,103160.44
2023-01-28T08:09:20.516Z,103157.69
2023-01-28T08:14:22.304Z,103153.78
2023-01-28T08:19:24.234Z,103151.31
2023-01-28T08:24:16.572Z,103159.28
2023-01-28T08:29:09.178Z,103171.50
2023-01-28T08:34:01.341Z,103181.88
2023-01-28T08:38:59.682Z,103177.00
2023-01-28T08:43:50.336Z,103180.19
2023-01-28T08:48:40.815Z,103188.34
2023-01-28T08:53:33.168Z,103193.47
2023-01-28T08:58:28.411Z,103194.00
2023-01-28T09:03:23.271Z,103203.59
2023-01-28T09:08:15.347Z,103215.03
2023-01-28T09:13:09.473Z,103203.69
2023-01-28T09:18:04.623Z,103201.28
2023-01-28T09:22:57.563Z,103213.84
2023-01-28T09:27:50.060Z,103210.53
2023-01-28T09:32:43.093Z,103220.44
2023-01-28T09:37:38.215Z,103214.38
2023-01-28T09:42:44.089Z,103221.63
2023-01-28T09:47:39.157Z,103234.66
2023-01-28T09:52:40.378Z,103232.16
2023-01-28T09:57:37.339Z,103231.28
2023-01-28T10:02:37.935Z,103242.97
2023-01-28T10:07:33.129Z,103233.34
2023-01-28T10:12:31.900Z,103238.06
2023-01-28T10:17:37.464Z,103250.59
2023-01-28T10:22:30.267Z,103243.34
2023-01-28T10:32:34.629Z,103239.97
2023-01-28T10:37:29.584Z,103229.47
2023-01-28T10:42:21.739Z,103238.50
2023-01-28T10:47:14.307Z,103219.72
2023-01-28T10:52:14.958Z,103219.91
2023-01-28T10:57:10.723Z,103213.38
2023-01-28T11:02:05.247Z,103207.41
2023-01-28T11:06:57.196Z,103200.47
2023-01-28T11:11:53.157Z,103201.59
2023-01-28T11:16:45.263Z,103179.09
2023-01-28T11:21:37.940Z,103171.38
2023-01-28T11:26:32.308Z,103159.06
2023-01-28T11:31:26.777Z,103148.72
2023-01-28T11:36:18.595Z,103121.88
2023-01-28T11:41:09.717Z,103117.13
2023-01-28T11:46:05.499Z,103105.66
2023-01-28T11:51:05.056Z,103103.03
2023-01-28T11:56:14.719Z,103102.59
2023-01-28T12:01:09.880Z,103099.00
2023-01-28T12:06:19.210Z,103130.19
2023-01-28T12:11:21.255Z,103130.81
2023-01-28T12:16:21.427Z,103139.78
2023-01-28T12:21:33.364Z,103140.34
2023-01-28T12:26:26.347Z,103137.63
2023-01-28T12:31:37.462Z,103142.38
2023-01-28T12:36:47.945Z,103149.25
2023-01-28T12:41:42.751Z,103169.91
2023-01-28T12:46:38.800Z,103152.75
2023-01-28T12:51:36.253Z,103143.84
2023-01-28T12:56:32.433Z,103137.84
2023-01-28T13:01:29.347Z,103128.84
2023-01-28T13:06:25.802Z,103120.28
2023-01-28T13:11:17.522Z,103083.72
2023-01-28T13:16:13.026Z,103073.75
2023-01-28T13:21:07.703Z,103059.63
2023-01-28T13:25:59.881Z,103054.94
2023-01-28T13:30:53.793Z,103062.88
2023-01-28T13:35:58.201Z,103068.16
2023-01-28T13:40:57.200Z,103078.75
2023-01-28T13:46:04.157Z,103073.09
2023-01-28T13:50:57.637Z,103057.66
2023-01-28T13:55:52.684Z,103067.91
2023-01-28T14:00:51.667Z,103082.56
2023-01-28T14:06:08.193Z,103074.69
2023-01-28T14:11:09.826Z,103073.53
2023-01-28T14:16:10.535Z,103071.09
2023-01-28T14:21:04.177Z,103079.81
2023-01-28T14:26:19.328Z,103092.06
2023-01-28T14:31:15.230Z,103092.25
2023-01-28T14:36:13.951Z,103099.78
2023-01-28T14:41:06.454Z,103085.38
2023-01-28T14:46:09.218Z,103075.88
2023-01-28T14:51:23.805Z,103081.91
2023-01-28T14:56:22.622Z,103081.97
2023-01-28T15:01:30.436Z,103087.88
2023-01-28T15:06:35.118Z,103080.97
2023-01-28T15:11:26.406Z,103094.38
2023-01-28T15:16:21.132Z,103090.13
2023-01-28T15:21:28.406Z,103110.00
2023-01-28T15:26:21.841Z,103109.66
2023-01-28T15:31:23.375Z,103110.25
2023-01-28T15:36:19.197Z,103117.75
2023-01-28T15:41:11.547Z,103133.75
2023-01-28T15:46:04.676Z,103155.50
2023-01-28T15:51:02.537Z,103128.50
2023-01-28T15:55:56.859Z,103110.84
2023-01-28T16:00:48.264Z,103111.47
2023-01-28T16:05:41.296Z,103121.25
2023-01-28T16:10:32.671Z,103138.84
2023-01-28T16:15:28.454Z,103141.97
2023-01-28T16:20:25.102Z,103138.03
2023-01-28T16:25:30.797Z,103152.28
2023-01-28T16:30:21.757Z,103147.03
2023-01-28T16:35:18.231Z,103138.00
2023-01-28T16:40:15.496Z,103137.06
2023-01-28T16:45:09.597Z,103140.94
2023-01-28T16:50:03.292Z,103136.66
2023-01-28T16:55:01.806Z,103124.50
2023-01-28T16:59:52.433Z,103132.41
2023-01-28T17:04:48.045Z,103149.94
2023-01-28T17:09:38.991Z,103143.88
2023-01-28T17:14:31.978Z,103138.66
2023-01-28T17:19:26.501Z,103140.28
2023-01-28T17:24:16.218Z,103145.75
2023-01-28T17:29:11.043Z,103145.88
2023-01-28T17:34:08.628Z,103140.59
2023-01-28T17:38:59.752Z,103145.00
2023-01-28T17:43:57.630Z,103153.56
2023-01-28T17:48:49.172Z,103151.19
2023-01-28T17:53:48.049Z,103148.56
2023-01-28T17:58:41.334Z,103142.81
2023-01-28T18:03:34.284Z,103142.13
2023-01-28T18:08:24.432Z,103154.06
2023-01-28T18:13:18.983Z,103150.56
2023-01-28T18:18:08.591Z,103166.09
2023-01-28T18:22:58.703Z,103170.38
2023-01-28T18:27:58.664Z,103181.94
2023-01-28T18:32:56.920Z,103183.38
2023-01-28T18:37:53.143Z,103178.97
2023-01-28T18:42:45.907Z,103196.28
2023-01-28T18:47:39.814Z,103199.03
2023-01-28T18:52:32.332Z,103204.13
2023-01-28T18:57:25.034Z,103215.47
2023-01-28T19:02:16.474Z,103197.28
2023-01-28T19:07:08.253Z,103191.00
2023-01-28T19:12:00.611Z,103189.31
2023-01-28T19:16:52.833Z,103181.88
2023-01-28T19:21:46.930Z,103180.03
2023-01-28T19:26:40.355Z,103185.97
2023-01-28T19:31:52.414Z,103183.25
2023-01-28T19:36:45.705Z,103186.72
2023-01-28T19:41:39.850Z,103182.75
2023-01-28T19:46:30.204Z,103188.06
2023-01-28T19:51:24.104Z,103186.50
2023-01-28T19:56:18.707Z,103179.59
2023-01-28T20:01:18.569Z,103184.38
2023-01-28T20:06:13.678Z,103170.88
2023-01-28T20:11:23.086Z,103170.06
2023-01-28T20:16:23.298Z,103178.16
2023-01-28T20:21:19.216Z,103177.81
2023-01-28T20:26:13.052Z,103184.13
2023-01-28T20:31:07.569Z,103183.47
2023-01-28T20:36:03.442Z,103174.69
2023-01-28T20:40:53.924Z,103168.00
2023-01-28T20:45:49.295Z,103178.13
2023-01-28T20:50:39.644Z,103156.19
2023-01-28T20:55:34.208Z,103158.34
2023-01-28T21:00:30.390Z,103161.00
2023-01-28T21:05:26.548Z,103158.19
2023-01-28T21:10:19.585Z,103154.00
2023-01-28T21:15:10.553Z,103174.22
2023-01-28T21:20:00.149Z,103162.41
2023-01-28T21:24:52.271Z,103160.75
2023-01-28T21:29:42.001Z,103157.34
2023-01-28T21:34:34.156Z,103182.00
2023-01-28T21:39:29.705Z,103169.94
2023-01-28T21:44:22.701Z,103170.63
2023-01-28T21:49:14.874Z,103164.31
2023-01-28T21:54:10.423Z,103169.59
2023-01-28T21:59:15.676Z,103163.06
2023-01-28T22:04:10.823Z,103161.63
2023-01-28T22:09:00.620Z,103156.28
2023-01-28T22:13:51.796Z,103167.97
2023-01-28T22:18:41.593Z,103159.28
2023-01-28T22:23:36.467Z,103152.78
2023-01-28T22:28:27.033Z,103153.22
2023-01-28T22:33:18.744Z,103140.03
2023-01-28T22:38:10.274Z,103141.06
2023-01-28T22:43:03.793Z,103140.25
2023-01-28T22:47:53.542Z,103119.63
2023-01-28T22:52:44.209Z,103135.84
2023-01-28T22:57:36.609Z,103125.69
2023-01-28T23:02:31.543Z,103120.28
2023-01-28T23:07:22.199Z,103121.16
2023-01-28T23:12:14.507Z,103125.69
2023-01-28T23:17:21.709Z,103120.81
2023-01-28T23:22:32.140Z,103114.13
2023-01-28T23:27:30.534Z,103119.34
2023-01-28T23:32:21.659Z,103111.97
2023-01-28T23:37:16.465Z,103107.41
2023-01-28T23:42:15.550Z,103110.28
2023-01-28T23:47:05.367Z,103101.66
2023-01-28T23:51:55.250Z,103097.63
2023-01-28T23:56:46.827Z,103090.69
